Brownsville, TX

5:46 AM CDT on July 29, 2015 (GMT -0500)
Los Fresnos NW | | Change Station
CLOSE
Current Station
Personal Weather Station
Location: Los Fresnos, TX
Elevation: 20 ft
Nearby Weather Stations

Elev 20 ft 26.12 °N, 97.49 °W | Updated 46 seconds ago

Overcast
Overcast
79.8 °F
Feels Like 86 °F
N
0.0
Wind Variable Wind from SE
Gusts 0.0 mph

Today
High -- | Low -- °F
--% Chance of Precip.
Yesterday
High -- | Low -- °F
Precip. -- in
6:54 AM 8:17 PM
Waxing Gibbous, 95% visible
Pressure 29.95 in
Visibility 5.0 miles
Clouds Scattered Clouds 1800 ft
Heat Index 86 °F
Dew Point 79 °F
Humidity 96%
Rainfall 0.00 in
Snow Depth Not available.
UV 0 out of 12
Pollen 4.50 out of 12
Air Quality Not available.
Flu Activity Not available.
SPECI KPIL 291043Z AUTO 14006KT 5SM BR SCT018 27/26 A2995 RMK AO2 T02670256

More Conditions Fewer Conditions

Pressure 29.95 in
Visibility 5.0 miles
Clouds Scattered Clouds 1800 ft
Heat Index 86 °F
Dew Point 79 °F
Humidity 96%
Rainfall 0.00 in
Snow Depth Not available.
UV 0 out of 12
Pollen 4.50 out of 12
Air Quality Not available.
Flu Activity Not available.
SPECI KPIL 291043Z AUTO 14006KT 5SM BR SCT018 27/26 A2995 RMK AO2 T02670256

More Conditions Fewer Conditions

10-Day Weather Forecast

×

Almanac

Astronomy

Jul. 29, 2015 Rise Set
Actual Time
Civil Twilight
Nautical Twilight
Astronomical Twilight
Moon
Length of Visible Light
Length of Day
Tomorrow will be .
, % of the Moon is Illuminated

Today's Extremes

State Highs State Lows

Community

WunderPhotos

Upload Photos

1,842,069 photos uploaded!

WunderBlogs® & News

Nearby

Air Quality

  Air Quality AQ Index Pollutant
Not available.

Snow Depth

Station Depth Elevation

Earthquake Activity

City Distance Mag. Time & Date
Minimum magnitude displayed is 2.5.

Coastal Water Temperatures

Place Temperature

Stations

Nearby Weather Stations

Station Location Temp. Windchill Dew Point Humidity Wind Precip. Elev Updated Type